HVN249 VVNB-VVTS
Flight info
| Callsign | HVN249 |
|---|---|
| Flight time | N/A |
| Altitude | 40000 |
| Route | NAH3A NAH Q1 DOVIN DOVIN5E |
| Aircraft | B78X/H-SDE1E2E3FGHIJ2J3J4J5M1RWXY/LB1D1 |
Departure
| Time | 2026-05-07 08:29 |
|---|---|
| Airport | Noi Bai International Airport (VVNB) |
Arrival
| Time | N/A |
|---|---|
| Airport | Tan Son Nhat International Airport (VVTS) |
| Time | Latitude | Longitude | Altitude | Speed | Heading |
|---|---|---|---|---|---|
| 2026-05-07 07:56 | 21.21487 | 105.80523 | 55 ft | 0 kts | 304° |
| 2026-05-07 08:17 | 21.21483 | 105.80528 | 47 ft | 4 kts | 302° |
| 2026-05-07 08:17 | 21.21470 | 105.80555 | 47 ft | 4 kts | 283° |
| 2026-05-07 08:17 | 21.21466 | 105.80580 | 47 ft | 4 kts | 262° |
| 2026-05-07 08:17 | 21.21472 | 105.80605 | 49 ft | 4 kts | 239° |
| 2026-05-07 08:18 | 21.21487 | 105.80628 | 47 ft | 4 kts | 223° |
| 2026-05-07 08:18 | 21.21507 | 105.80646 | 47 ft | 4 kts | 213° |
| 2026-05-07 08:18 | 21.21531 | 105.80662 | 47 ft | 4 kts | 209° |
| 2026-05-07 08:18 | 21.21555 | 105.80676 | 47 ft | 4 kts | 209° |
| 2026-05-07 08:19 | 21.21577 | 105.80690 | 47 ft | 4 kts | 219° |
| 2026-05-07 08:19 | 21.21595 | 105.80707 | 47 ft | 4 kts | 248° |
| 2026-05-07 08:19 | 21.21600 | 105.80717 | 47 ft | 1 kts | 287° |
| 2026-05-07 08:21 | 21.21600 | 105.80716 | 47 ft | 0 kts | 288° |
| 2026-05-07 08:21 | 21.21601 | 105.80715 | 47 ft | 1 kts | 289° |
| 2026-05-07 08:22 | 21.21607 | 105.80707 | 49 ft | 5 kts | 308° |
| 2026-05-07 08:22 | 21.21644 | 105.80690 | 47 ft | 8 kts | 342° |
| 2026-05-07 08:22 | 21.21703 | 105.80651 | 48 ft | 13 kts | 313° |
| 2026-05-07 08:22 | 21.21744 | 105.80550 | 51 ft | 17 kts | 286° |
| 2026-05-07 08:23 | 21.21778 | 105.80434 | 52 ft | 19 kts | 287° |
| 2026-05-07 08:23 | 21.21792 | 105.80382 | 51 ft | 0 kts | 285° |
| 2026-05-07 08:23 | 21.21797 | 105.80365 | 49 ft | 8 kts | 287° |
| 2026-05-07 08:23 | 21.21835 | 105.80230 | 52 ft | 29 kts | 287° |
| 2026-05-07 08:24 | 21.21894 | 105.80022 | 49 ft | 29 kts | 287° |
| 2026-05-07 08:24 | 21.21956 | 105.79812 | 48 ft | 30 kts | 287° |
| 2026-05-07 08:24 | 21.22015 | 105.79603 | 51 ft | 30 kts | 287° |
| 2026-05-07 08:24 | 21.22077 | 105.79390 | 53 ft | 30 kts | 287° |
| 2026-05-07 08:25 | 21.22137 | 105.79183 | 50 ft | 30 kts | 287° |
| 2026-05-07 08:25 | 21.22198 | 105.78973 | 50 ft | 30 kts | 286° |
| 2026-05-07 08:25 | 21.22254 | 105.78781 | 50 ft | 27 kts | 287° |
| 2026-05-07 08:25 | 21.22299 | 105.78647 | 48 ft | 10 kts | 301° |
| 2026-05-07 08:26 | 21.22391 | 105.78626 | 51 ft | 6 kts | 13° |
| 2026-05-07 08:26 | 21.22421 | 105.78644 | 54 ft | 4 kts | 41° |
| 2026-05-07 08:26 | 21.22437 | 105.78668 | 50 ft | 3 kts | 63° |
| 2026-05-07 08:27 | 21.22445 | 105.78694 | 51 ft | 4 kts | 78° |
| 2026-05-07 08:27 | 21.22443 | 105.78709 | 54 ft | 0 kts | 98° |
| 2026-05-07 08:29 | 21.22404 | 105.78865 | 51 ft | 66 kts | 107° |
| 2026-05-07 08:29 | 21.22171 | 105.79677 | 52 ft | 158 kts | 107° |
| 2026-05-07 08:29 | 21.21786 | 105.80923 | 738 ft | 179 kts | 111° |
| 2026-05-07 08:30 | 21.21430 | 105.82002 | 2195 ft | 151 kts | 107° |
| 2026-05-07 08:30 | 21.21165 | 105.83232 | 2879 ft | 175 kts | 105° |
| 2026-05-07 08:30 | 21.20820 | 105.84584 | 3568 ft | 200 kts | 107° |
| 2026-05-07 08:30 | 21.20400 | 105.86083 | 4310 ft | 221 kts | 107° |
| 2026-05-07 08:31 | 21.19934 | 105.87752 | 5039 ft | 243 kts | 106° |
| 2026-05-07 08:31 | 21.19437 | 105.89545 | 5783 ft | 258 kts | 105° |
| 2026-05-07 08:31 | 21.18918 | 105.91417 | 6716 ft | 265 kts | 105° |
| 2026-05-07 08:31 | 21.18386 | 105.93338 | 7619 ft | 274 kts | 105° |
| 2026-05-07 08:32 | 21.17824 | 105.95364 | 8469 ft | 293 kts | 105° |
| 2026-05-07 08:32 | 21.17097 | 105.97420 | 9651 ft | 299 kts | 124° |
| 2026-05-07 08:32 | 21.15610 | 105.99012 | 10618 ft | 313 kts | 149° |
| 2026-05-07 08:32 | 21.13491 | 105.99790 | 11349 ft | 331 kts | 171° |
| 2026-05-07 08:33 | 21.11697 | 106.00089 | 11771 ft | 351 kts | 174° |
| 2026-05-07 08:33 | 21.09204 | 106.00401 | 12402 ft | 372 kts | 174° |
| 2026-05-07 08:33 | 21.06561 | 106.00776 | 13296 ft | 382 kts | 173° |
| 2026-05-07 08:33 | 21.03949 | 106.01207 | 13988 ft | 394 kts | 172° |
| 2026-05-07 08:34 | 21.01503 | 106.01600 | 14493 ft | 409 kts | 173° |
| 2026-05-07 08:34 | 20.98575 | 106.02036 | 15107 ft | 423 kts | 173° |
| 2026-05-07 08:34 | 20.95635 | 106.02471 | 15708 ft | 434 kts | 173° |
| 2026-05-07 08:34 | 20.92598 | 106.02942 | 16452 ft | 440 kts | 173° |
| 2026-05-07 08:35 | 20.89596 | 106.03414 | 17547 ft | 436 kts | 173° |
| 2026-05-07 08:35 | 20.86625 | 106.03867 | 18617 ft | 432 kts | 173° |
| 2026-05-07 08:35 | 20.83637 | 106.04314 | 19565 ft | 430 kts | 173° |
| 2026-05-07 08:35 | 20.80655 | 106.04769 | 20397 ft | 433 kts | 173° |
| 2026-05-07 08:36 | 20.77656 | 106.05231 | 21154 ft | 437 kts | 173° |
| 2026-05-07 08:36 | 20.74639 | 106.05693 | 21882 ft | 442 kts | 173° |
| 2026-05-07 08:36 | 20.71558 | 106.06160 | 22585 ft | 447 kts | 173° |
| 2026-05-07 08:36 | 20.68501 | 106.06625 | 23242 ft | 452 kts | 173° |
| 2026-05-07 08:37 | 20.65322 | 106.07112 | 23833 ft | 457 kts | 173° |
| 2026-05-07 08:37 | 20.62162 | 106.07594 | 24386 ft | 461 kts | 173° |
| 2026-05-07 08:37 | 20.58965 | 106.08080 | 24941 ft | 466 kts | 173° |
| 2026-05-07 08:37 | 20.55769 | 106.08654 | 25473 ft | 470 kts | 170° |
| 2026-05-07 08:38 | 20.52553 | 106.09268 | 26000 ft | 473 kts | 172° |
| 2026-05-07 08:38 | 20.49276 | 106.09817 | 26537 ft | 477 kts | 172° |
| 2026-05-07 08:38 | 20.45971 | 106.10408 | 27057 ft | 481 kts | 171° |
| 2026-05-07 08:38 | 20.42701 | 106.11046 | 27572 ft | 485 kts | 171° |
| 2026-05-07 08:39 | 20.40515 | 106.11473 | 27900 ft | 488 kts | 170° |
| 2026-05-07 08:39 | 20.37293 | 106.12516 | 28414 ft | 494 kts | 158° |
| 2026-05-07 08:39 | 20.34141 | 106.14066 | 28889 ft | 498 kts | 156° |
| 2026-05-07 08:39 | 20.30995 | 106.15635 | 29368 ft | 502 kts | 156° |
| 2026-05-07 08:40 | 20.27846 | 106.17217 | 29830 ft | 506 kts | 156° |
| 2026-05-07 08:40 | 20.24628 | 106.18831 | 30225 ft | 510 kts | 156° |
| 2026-05-07 08:40 | 20.21369 | 106.20456 | 30628 ft | 513 kts | 156° |
| 2026-05-07 08:40 | 20.18130 | 106.22070 | 31008 ft | 516 kts | 156° |
| 2026-05-07 08:41 | 20.14906 | 106.23682 | 31386 ft | 519 kts | 156° |
| 2026-05-07 08:41 | 20.11621 | 106.25324 | 31744 ft | 521 kts | 156° |
| 2026-05-07 08:41 | 20.08323 | 106.26968 | 32104 ft | 524 kts | 156° |
| 2026-05-07 08:41 | 20.04984 | 106.28631 | 32449 ft | 526 kts | 156° |
| 2026-05-07 08:42 | 20.01690 | 106.30273 | 32820 ft | 528 kts | 156° |
| 2026-05-07 08:42 | 19.98369 | 106.31929 | 33376 ft | 525 kts | 157° |
| 2026-05-07 08:42 | 19.95066 | 106.33573 | 33911 ft | 523 kts | 157° |
| 2026-05-07 08:42 | 19.91793 | 106.35201 | 34378 ft | 522 kts | 157° |
| 2026-05-07 08:43 | 19.88511 | 106.36833 | 34810 ft | 521 kts | 157° |
| 2026-05-07 08:43 | 19.85198 | 106.38481 | 35229 ft | 520 kts | 157° |
| 2026-05-07 08:43 | 19.81992 | 106.40074 | 35642 ft | 520 kts | 157° |
| 2026-05-07 08:43 | 19.78642 | 106.41738 | 36074 ft | 519 kts | 157° |
| 2026-05-07 08:44 | 19.75688 | 106.43205 | 36449 ft | 519 kts | 157° |
| 2026-05-07 08:44 | 19.72821 | 106.44628 | 36826 ft | 518 kts | 157° |
| 2026-05-07 08:44 | 19.69570 | 106.46241 | 37229 ft | 518 kts | 157° |
| 2026-05-07 08:44 | 19.66287 | 106.47869 | 37672 ft | 517 kts | 157° |
| 2026-05-07 08:45 | 19.63036 | 106.49480 | 38097 ft | 516 kts | 157° |
| 2026-05-07 08:45 | 19.60142 | 106.50914 | 38460 ft | 516 kts | 157° |
| 2026-05-07 08:45 | 19.56916 | 106.52511 | 38800 ft | 515 kts | 157° |
| 2026-05-07 08:45 | 19.53678 | 106.54114 | 39140 ft | 514 kts | 157° |
| 2026-05-07 08:46 | 19.50437 | 106.55718 | 39490 ft | 513 kts | 157° |
| 2026-05-07 08:46 | 19.47174 | 106.57331 | 39787 ft | 513 kts | 157° |
| 2026-05-07 08:46 | 19.40791 | 106.60487 | 39801 ft | 504 kts | 157° |
| 2026-05-07 08:47 | 19.34399 | 106.63642 | 39814 ft | 505 kts | 157° |
| 2026-05-07 08:47 | 19.28052 | 106.66775 | 39812 ft | 505 kts | 157° |
| 2026-05-07 08:48 | 19.21661 | 106.69883 | 39814 ft | 503 kts | 160° |
| 2026-05-07 08:48 | 19.15220 | 106.72921 | 39827 ft | 505 kts | 157° |
| 2026-05-07 08:49 | 19.08790 | 106.75938 | 39828 ft | 504 kts | 159° |
| 2026-05-07 08:49 | 19.02328 | 106.78954 | 39827 ft | 504 kts | 158° |
| 2026-05-07 08:50 | 18.95934 | 106.81958 | 39823 ft | 503 kts | 158° |
| 2026-05-07 08:50 | 18.89645 | 106.84886 | 39821 ft | 504 kts | 158° |
| 2026-05-07 08:51 | 18.83165 | 106.87924 | 39824 ft | 504 kts | 158° |
| 2026-05-07 08:51 | 18.76788 | 106.90888 | 39821 ft | 503 kts | 158° |
| 2026-05-07 08:52 | 18.70539 | 106.93805 | 39821 ft | 503 kts | 158° |
| 2026-05-07 08:52 | 18.64045 | 106.96823 | 39819 ft | 504 kts | 158° |
| 2026-05-07 08:53 | 18.57491 | 106.99874 | 39821 ft | 505 kts | 158° |
| 2026-05-07 08:53 | 18.50830 | 107.02967 | 39822 ft | 506 kts | 158° |
| 2026-05-07 08:54 | 18.44417 | 107.05946 | 39818 ft | 505 kts | 158° |
| 2026-05-07 08:54 | 18.37956 | 107.08951 | 39820 ft | 506 kts | 158° |
| 2026-05-07 08:55 | 18.32344 | 107.11557 | 39815 ft | 506 kts | 158° |
| 2026-05-07 08:55 | 18.25854 | 107.14568 | 39816 ft | 510 kts | 158° |
| 2026-05-07 08:56 | 18.19683 | 107.17429 | 39825 ft | 523 kts | 158° |
| 2026-05-07 08:56 | 18.12963 | 107.20544 | 39828 ft | 530 kts | 158° |
| 2026-05-07 08:57 | 18.06211 | 107.23670 | 39820 ft | 530 kts | 158° |
| 2026-05-07 08:57 | 17.99525 | 107.26862 | 39817 ft | 532 kts | 157° |
| 2026-05-07 08:58 | 17.92773 | 107.30067 | 39821 ft | 532 kts | 157° |
| 2026-05-07 08:58 | 17.87159 | 107.32725 | 39823 ft | 532 kts | 157° |
| 2026-05-07 08:59 | 17.79290 | 107.36466 | 39820 ft | 532 kts | 157° |
| 2026-05-07 08:59 | 17.72536 | 107.39663 | 39819 ft | 531 kts | 157° |
| 2026-05-07 09:00 | 17.66890 | 107.42341 | 39818 ft | 531 kts | 157° |
| 2026-05-07 09:00 | 17.60210 | 107.45497 | 39816 ft | 531 kts | 157° |
| 2026-05-07 09:01 | 17.53460 | 107.48691 | 39812 ft | 531 kts | 157° |
| 2026-05-07 09:01 | 17.46724 | 107.51871 | 39812 ft | 532 kts | 157° |
| 2026-05-07 09:02 | 17.39933 | 107.55078 | 39809 ft | 533 kts | 157° |
| 2026-05-07 09:02 | 17.33206 | 107.58250 | 39812 ft | 533 kts | 157° |
| 2026-05-07 09:03 | 17.26424 | 107.61446 | 39814 ft | 532 kts | 157° |
| 2026-05-07 09:03 | 17.19638 | 107.64641 | 39812 ft | 531 kts | 156° |
| 2026-05-07 09:04 | 17.12899 | 107.67812 | 39809 ft | 531 kts | 156° |
| 2026-05-07 09:04 | 17.06223 | 107.71051 | 39807 ft | 532 kts | 155° |
| 2026-05-07 09:05 | 17.00259 | 107.73961 | 39808 ft | 532 kts | 156° |
| 2026-05-07 09:05 | 16.93541 | 107.77199 | 39811 ft | 532 kts | 155° |
| 2026-05-07 09:06 | 16.87190 | 107.80294 | 39807 ft | 532 kts | 156° |
| 2026-05-07 09:06 | 16.80465 | 107.83537 | 39805 ft | 532 kts | 156° |
| 2026-05-07 09:07 | 16.73774 | 107.86784 | 39803 ft | 531 kts | 156° |
| 2026-05-07 09:07 | 16.67069 | 107.90020 | 39800 ft | 530 kts | 156° |
| 2026-05-07 09:08 | 16.60406 | 107.93255 | 39802 ft | 529 kts | 156° |
| 2026-05-07 09:08 | 16.53698 | 107.96496 | 39801 ft | 529 kts | 156° |
| 2026-05-07 09:09 | 16.47030 | 107.99719 | 39802 ft | 529 kts | 156° |
| 2026-05-07 09:09 | 16.40327 | 108.02950 | 39812 ft | 529 kts | 156° |
| 2026-05-07 09:10 | 16.33662 | 108.06165 | 39815 ft | 528 kts | 156° |
| 2026-05-07 09:10 | 16.26953 | 108.09395 | 39821 ft | 527 kts | 156° |
| 2026-05-07 09:11 | 16.20296 | 108.12600 | 39825 ft | 527 kts | 156° |
| 2026-05-07 09:11 | 16.13643 | 108.15799 | 39827 ft | 526 kts | 156° |
| 2026-05-07 09:12 | 16.06948 | 108.18832 | 39853 ft | 524 kts | 166° |
| 2026-05-07 09:12 | 15.99737 | 108.19697 | 39858 ft | 521 kts | 182° |
| 2026-05-07 09:13 | 15.92490 | 108.19552 | 39835 ft | 522 kts | 182° |
| 2026-05-07 09:13 | 15.85223 | 108.19385 | 39835 ft | 523 kts | 182° |
| 2026-05-07 09:14 | 15.77885 | 108.19232 | 39827 ft | 524 kts | 182° |
| 2026-05-07 09:14 | 15.70600 | 108.19071 | 39824 ft | 524 kts | 182° |
| 2026-05-07 09:15 | 15.63305 | 108.18915 | 39822 ft | 524 kts | 182° |
| 2026-05-07 09:15 | 15.56234 | 108.18761 | 39823 ft | 524 kts | 182° |
| 2026-05-07 09:16 | 15.49588 | 108.18618 | 39833 ft | 524 kts | 182° |
| 2026-05-07 09:16 | 15.42297 | 108.18461 | 39836 ft | 523 kts | 182° |
| 2026-05-07 09:17 | 15.35527 | 108.18315 | 39841 ft | 524 kts | 182° |
| 2026-05-07 09:17 | 15.28246 | 108.18159 | 39848 ft | 524 kts | 182° |
| 2026-05-07 09:18 | 15.20945 | 108.18001 | 39857 ft | 523 kts | 182° |
| 2026-05-07 09:18 | 15.13706 | 108.17846 | 39860 ft | 522 kts | 182° |
| 2026-05-07 09:19 | 15.06410 | 108.17689 | 39866 ft | 522 kts | 182° |
| 2026-05-07 09:19 | 14.99213 | 108.17528 | 39869 ft | 523 kts | 182° |
| 2026-05-07 09:20 | 14.91849 | 108.17366 | 39873 ft | 524 kts | 182° |
| 2026-05-07 09:20 | 14.84587 | 108.17205 | 39872 ft | 523 kts | 182° |
| 2026-05-07 09:21 | 14.77299 | 108.17045 | 39867 ft | 522 kts | 182° |
| 2026-05-07 09:21 | 14.70110 | 108.16886 | 39860 ft | 522 kts | 182° |
| 2026-05-07 09:22 | 14.62827 | 108.16725 | 39853 ft | 523 kts | 182° |
| 2026-05-07 09:22 | 14.55529 | 108.16564 | 39851 ft | 523 kts | 182° |
| 2026-05-07 09:23 | 14.48206 | 108.16404 | 39844 ft | 522 kts | 182° |
| 2026-05-07 09:23 | 14.40973 | 108.16244 | 39845 ft | 522 kts | 182° |
| 2026-05-07 09:24 | 14.33751 | 108.16085 | 39839 ft | 521 kts | 182° |
| 2026-05-07 09:24 | 14.26486 | 108.15926 | 39834 ft | 520 kts | 182° |
| 2026-05-07 09:25 | 14.19250 | 108.15773 | 39823 ft | 520 kts | 182° |
| 2026-05-07 09:25 | 14.12344 | 108.15625 | 39822 ft | 520 kts | 182° |
| 2026-05-07 09:26 | 14.05537 | 108.15479 | 39820 ft | 520 kts | 182° |
| 2026-05-07 09:26 | 13.98271 | 108.15324 | 39817 ft | 520 kts | 182° |
| 2026-05-07 09:27 | 13.91481 | 108.15174 | 39811 ft | 520 kts | 182° |
| 2026-05-07 09:28 | 13.80610 | 108.14936 | 39802 ft | 520 kts | 182° |
| 2026-05-07 09:28 | 13.73317 | 108.14775 | 39800 ft | 520 kts | 182° |
| 2026-05-07 09:29 | 13.66125 | 108.14619 | 39796 ft | 522 kts | 182° |
| 2026-05-07 09:29 | 13.58863 | 108.14459 | 39786 ft | 515 kts | 182° |
| 2026-05-07 09:30 | 13.53014 | 108.14334 | 39776 ft | 494 kts | 182° |
| 2026-05-07 09:30 | 13.46347 | 108.14183 | 39778 ft | 499 kts | 183° |
| 2026-05-07 09:31 | 13.39412 | 108.14035 | 39779 ft | 498 kts | 183° |
| 2026-05-07 09:31 | 13.32560 | 108.13883 | 39778 ft | 499 kts | 183° |
| 2026-05-07 09:32 | 13.25655 | 108.13714 | 39781 ft | 499 kts | 183° |
| 2026-05-07 09:32 | 13.18666 | 108.13547 | 39785 ft | 498 kts | 183° |
| 2026-05-07 09:33 | 13.11768 | 108.13381 | 39784 ft | 498 kts | 183° |
| 2026-05-07 09:33 | 13.04826 | 108.13215 | 39791 ft | 498 kts | 183° |
| 2026-05-07 09:34 | 12.97908 | 108.13049 | 39790 ft | 497 kts | 183° |
| 2026-05-07 09:34 | 12.91002 | 108.12883 | 39787 ft | 497 kts | 183° |
| 2026-05-07 09:35 | 12.84055 | 108.12717 | 39787 ft | 498 kts | 183° |
| 2026-05-07 09:35 | 12.77126 | 108.12551 | 39786 ft | 497 kts | 183° |
| 2026-05-07 09:36 | 12.70162 | 108.12384 | 39783 ft | 497 kts | 183° |
| 2026-05-07 09:36 | 12.63294 | 108.12225 | 39787 ft | 498 kts | 182° |
| 2026-05-07 09:37 | 12.59399 | 108.12155 | 39790 ft | 497 kts | 182° |